sensor_id;sensor_type;location;lat;lon;timestamp;temperature;humidity
71237;DHT22;58984;51.960;5.582;2023-02-28T00:01:30;10.80;45.30
71237;DHT22;58984;51.960;5.582;2023-02-28T00:03:57;10.80;45.30
71237;DHT22;58984;51.960;5.582;2023-02-28T00:06:23;10.80;45.30
71237;DHT22;58984;51.960;5.582;2023-02-28T00:08:49;10.70;45.20
71237;DHT22;58984;51.960;5.582;2023-02-28T00:11:15;10.70;45.30
71237;DHT22;58984;51.960;5.582;2023-02-28T00:13:44;10.70;45.30
71237;DHT22;58984;51.960;5.582;2023-02-28T00:16:14;10.70;45.40
71237;DHT22;58984;51.960;5.582;2023-02-28T00:18:41;10.70;45.50
71237;DHT22;58984;51.960;5.582;2023-02-28T00:21:07;10.70;45.50
71237;DHT22;58984;51.960;5.582;2023-02-28T00:23:33;10.70;45.50
71237;DHT22;58984;51.960;5.582;2023-02-28T00:25:59;10.70;45.60
71237;DHT22;58984;51.960;5.582;2023-02-28T00:28:25;10.70;45.70
71237;DHT22;58984;51.960;5.582;2023-02-28T00:30:50;10.70;45.70
71237;DHT22;58984;51.960;5.582;2023-02-28T00:33:16;10.70;45.70
71237;DHT22;58984;51.960;5.582;2023-02-28T00:35:42;10.70;45.70
71237;DHT22;58984;51.960;5.582;2023-02-28T00:38:08;10.70;45.70
71237;DHT22;58984;51.960;5.582;2023-02-28T00:40:34;10.60;45.60
71237;DHT22;58984;51.960;5.582;2023-02-28T00:42:59;10.60;45.60
71237;DHT22;58984;51.960;5.582;2023-02-28T00:45:25;10.70;45.70
71237;DHT22;58984;51.960;5.582;2023-02-28T00:47:51;10.60;45.70
71237;DHT22;58984;51.960;5.582;2023-02-28T00:50:20;10.60;45.70
71237;DHT22;58984;51.960;5.582;2023-02-28T00:52:46;10.60;45.70
71237;DHT22;58984;51.960;5.582;2023-02-28T00:55:12;10.60;45.80
71237;DHT22;58984;51.960;5.582;2023-02-28T00:57:38;10.60;45.80
71237;DHT22;58984;51.960;5.582;2023-02-28T01:00:04;10.60;45.90
71237;DHT22;58984;51.960;5.582;2023-02-28T01:02:30;10.60;45.90
71237;DHT22;58984;51.960;5.582;2023-02-28T01:04:56;10.60;45.90
71237;DHT22;58984;51.960;5.582;2023-02-28T01:07:22;10.60;46.00
71237;DHT22;58984;51.960;5.582;2023-02-28T01:09:48;10.60;46.00
71237;DHT22;58984;51.960;5.582;2023-02-28T01:12:14;10.60;46.00
71237;DHT22;58984;51.960;5.582;2023-02-28T01:14:40;10.60;46.00
71237;DHT22;58984;51.960;5.582;2023-02-28T01:17:06;10.70;46.10
71237;DHT22;58984;51.960;5.582;2023-02-28T01:19:31;10.60;46.20
71237;DHT22;58984;51.960;5.582;2023-02-28T01:21:59;10.60;46.10
71237;DHT22;58984;51.960;5.582;2023-02-28T01:24:25;10.60;46.20
71237;DHT22;58984;51.960;5.582;2023-02-28T01:26:51;10.60;46.20
71237;DHT22;58984;51.960;5.582;2023-02-28T01:29:16;10.70;46.30
71237;DHT22;58984;51.960;5.582;2023-02-28T01:31:42;10.60;46.20
71237;DHT22;58984;51.960;5.582;2023-02-28T01:34:07;10.60;46.20
71237;DHT22;58984;51.960;5.582;2023-02-28T01:36:33;10.60;46.20
71237;DHT22;58984;51.960;5.582;2023-02-28T01:38:58;10.60;46.30
71237;DHT22;58984;51.960;5.582;2023-02-28T01:41:27;10.60;46.30
71237;DHT22;58984;51.960;5.582;2023-02-28T01:43:55;10.60;46.30
71237;DHT22;58984;51.960;5.582;2023-02-28T01:46:20;10.60;46.30
71237;DHT22;58984;51.960;5.582;2023-02-28T01:49:19;10.60;46.40
71237;DHT22;58984;51.960;5.582;2023-02-28T01:51:51;10.50;47.00
71237;DHT22;58984;51.960;5.582;2023-02-28T01:54:24;10.50;46.30
71237;DHT22;58984;51.960;5.582;2023-02-28T01:56:57;10.60;46.40
71237;DHT22;58984;51.960;5.582;2023-02-28T01:59:33;10.50;46.30
71237;DHT22;58984;51.960;5.582;2023-02-28T02:02:00;10.50;46.40
71237;DHT22;58984;51.960;5.582;2023-02-28T02:04:30;10.60;46.50
71237;DHT22;58984;51.960;5.582;2023-02-28T02:06:58;10.50;46.50
71237;DHT22;58984;51.960;5.582;2023-02-28T02:09:24;10.50;46.40
71237;DHT22;58984;51.960;5.582;2023-02-28T02:11:49;10.50;46.50
71237;DHT22;58984;51.960;5.582;2023-02-28T02:14:50;10.50;46.50
71237;DHT22;58984;51.960;5.582;2023-02-28T02:17:34;10.50;46.50
71237;DHT22;58984;51.960;5.582;2023-02-28T02:22:44;10.50;46.50
71237;DHT22;58984;51.960;5.582;2023-02-28T02:35:47;10.50;46.70
71237;DHT22;58984;51.960;5.582;2023-02-28T02:38:29;10.50;46.70
71237;DHT22;58984;51.960;5.582;2023-02-28T02:41:19;10.50;46.70
71237;DHT22;58984;51.960;5.582;2023-02-28T02:43:51;10.50;46.80
71237;DHT22;58984;51.960;5.582;2023-02-28T02:46:28;10.50;46.70
71237;DHT22;58984;51.960;5.582;2023-02-28T02:48:56;10.50;46.80
71237;DHT22;58984;51.960;5.582;2023-02-28T02:51:24;10.50;46.80
71237;DHT22;58984;51.960;5.582;2023-02-28T02:53:54;10.50;46.80
71237;DHT22;58984;51.960;5.582;2023-02-28T02:56:24;10.50;46.90
71237;DHT22;58984;51.960;5.582;2023-02-28T02:58:53;10.50;46.90
71237;DHT22;58984;51.960;5.582;2023-02-28T03:01:24;10.50;46.90
71237;DHT22;58984;51.960;5.582;2023-02-28T03:04:09;10.50;46.90
71237;DHT22;58984;51.960;5.582;2023-02-28T03:06:35;10.50;47.60
71237;DHT22;58984;51.960;5.582;2023-02-28T03:09:01;10.50;46.90
71237;DHT22;58984;51.960;5.582;2023-02-28T03:11:27;10.50;47.00
71237;DHT22;58984;51.960;5.582;2023-02-28T03:14:18;10.50;47.00
71237;DHT22;58984;51.960;5.582;2023-02-28T03:22:23;10.50;47.10
71237;DHT22;58984;51.960;5.582;2023-02-28T03:33:05;10.40;47.10
71237;DHT22;58984;51.960;5.582;2023-02-28T03:35:36;10.50;47.10
71237;DHT22;58984;51.960;5.582;2023-02-28T03:38:12;10.50;47.20
71237;DHT22;58984;51.960;5.582;2023-02-28T03:40:47;10.50;47.30
71237;DHT22;58984;51.960;5.582;2023-02-28T03:43:19;10.40;47.10
71237;DHT22;58984;51.960;5.582;2023-02-28T03:45:45;10.50;47.30
71237;DHT22;58984;51.960;5.582;2023-02-28T03:48:17;10.50;47.30
71237;DHT22;58984;51.960;5.582;2023-02-28T03:50:47;10.40;47.20
71237;DHT22;58984;51.960;5.582;2023-02-28T03:53:19;10.40;47.20
71237;DHT22;58984;51.960;5.582;2023-02-28T03:55:50;10.40;47.30
71237;DHT22;58984;51.960;5.582;2023-02-28T04:01:11;10.50;47.30
71237;DHT22;58984;51.960;5.582;2023-02-28T04:03:38;10.50;47.30
71237;DHT22;58984;51.960;5.582;2023-02-28T04:06:05;10.40;47.20
71237;DHT22;58984;51.960;5.582;2023-02-28T04:08:32;10.40;47.30
71237;DHT22;58984;51.960;5.582;2023-02-28T04:11:08;10.40;47.30
71237;DHT22;58984;51.960;5.582;2023-02-28T04:13:40;10.40;47.30
71237;DHT22;58984;51.960;5.582;2023-02-28T04:16:09;10.40;47.20
71237;DHT22;58984;51.960;5.582;2023-02-28T04:18:41;10.40;47.30
71237;DHT22;58984;51.960;5.582;2023-02-28T04:21:11;10.40;47.30
71237;DHT22;58984;51.960;5.582;2023-02-28T04:23:37;10.40;47.30
71237;DHT22;58984;51.960;5.582;2023-02-28T04:26:03;10.50;47.40
71237;DHT22;58984;51.960;5.582;2023-02-28T04:28:30;10.40;47.30
71237;DHT22;58984;51.960;5.582;2023-02-28T04:31:04;10.50;47.40
71237;DHT22;58984;51.960;5.582;2023-02-28T04:33:31;10.40;47.30
71237;DHT22;58984;51.960;5.582;2023-02-28T04:36:06;10.40;47.30
71237;DHT22;58984;51.960;5.582;2023-02-28T04:38:33;10.40;47.30
71237;DHT22;58984;51.960;5.582;2023-02-28T04:41:00;10.40;47.20
71237;DHT22;58984;51.960;5.582;2023-02-28T04:43:27;10.40;47.10
71237;DHT22;58984;51.960;5.582;2023-02-28T04:45:53;10.40;47.10
71237;DHT22;58984;51.960;5.582;2023-02-28T04:48:25;10.40;47.10
71237;DHT22;58984;51.960;5.582;2023-02-28T04:50:51;10.40;47.10
71237;DHT22;58984;51.960;5.582;2023-02-28T04:53:17;10.40;47.10
71237;DHT22;58984;51.960;5.582;2023-02-28T04:55:43;10.40;47.10
71237;DHT22;58984;51.960;5.582;2023-02-28T04:58:09;10.40;47.10
71237;DHT22;58984;51.960;5.582;2023-02-28T05:00:35;10.40;47.10
71237;DHT22;58984;51.960;5.582;2023-02-28T05:03:00;10.40;47.10
71237;DHT22;58984;51.960;5.582;2023-02-28T05:05:26;10.40;47.20
71237;DHT22;58984;51.960;5.582;2023-02-28T05:07:52;10.40;47.20
71237;DHT22;58984;51.960;5.582;2023-02-28T05:10:19;10.40;47.20
71237;DHT22;58984;51.960;5.582;2023-02-28T05:12:44;10.40;47.20
71237;DHT22;58984;51.960;5.582;2023-02-28T05:15:14;10.40;47.20
71237;DHT22;58984;51.960;5.582;2023-02-28T05:17:40;10.40;47.30
71237;DHT22;58984;51.960;5.582;2023-02-28T05:20:07;10.40;47.20
71237;DHT22;58984;51.960;5.582;2023-02-28T05:22:36;10.40;47.30
71237;DHT22;58984;51.960;5.582;2023-02-28T05:25:02;10.30;47.30
71237;DHT22;58984;51.960;5.582;2023-02-28T05:27:28;10.30;47.30
71237;DHT22;58984;51.960;5.582;2023-02-28T05:29:54;10.30;47.20
71237;DHT22;58984;51.960;5.582;2023-02-28T05:32:19;10.40;47.30
71237;DHT22;58984;51.960;5.582;2023-02-28T05:34:45;10.30;47.30
71237;DHT22;58984;51.960;5.582;2023-02-28T05:37:14;10.40;47.30
71237;DHT22;58984;51.960;5.582;2023-02-28T05:39:41;10.30;47.30
71237;DHT22;58984;51.960;5.582;2023-02-28T05:42:07;10.30;47.20
71237;DHT22;58984;51.960;5.582;2023-02-28T05:44:32;10.40;47.40
71237;DHT22;58984;51.960;5.582;2023-02-28T05:46:58;10.40;47.50
71237;DHT22;58984;51.960;5.582;2023-02-28T05:49:24;10.30;47.40
71237;DHT22;58984;51.960;5.582;2023-02-28T05:51:49;10.30;47.50
71237;DHT22;58984;51.960;5.582;2023-02-28T05:54:15;10.30;47.40
71237;DHT22;58984;51.960;5.582;2023-02-28T05:56:41;10.30;47.40
71237;DHT22;58984;51.960;5.582;2023-02-28T05:59:09;10.30;47.50
71237;DHT22;58984;51.960;5.582;2023-02-28T06:01:38;10.40;47.50
71237;DHT22;58984;51.960;5.582;2023-02-28T06:04:06;10.30;47.60
71237;DHT22;58984;51.960;5.582;2023-02-28T06:06:32;10.30;47.60
71237;DHT22;58984;51.960;5.582;2023-02-28T06:08:59;10.30;47.60
71237;DHT22;58984;51.960;5.582;2023-02-28T06:11:26;10.30;47.60
71237;DHT22;58984;51.960;5.582;2023-02-28T06:13:57;10.30;47.60
71237;DHT22;58984;51.960;5.582;2023-02-28T06:16:25;10.20;47.50
71237;DHT22;58984;51.960;5.582;2023-02-28T06:18:51;10.30;47.60
71237;DHT22;58984;51.960;5.582;2023-02-28T06:21:18;10.30;47.60
71237;DHT22;58984;51.960;5.582;2023-02-28T06:23:44;10.30;47.60
71237;DHT22;58984;51.960;5.582;2023-02-28T06:26:10;10.30;47.60
71237;DHT22;58984;51.960;5.582;2023-02-28T06:28:36;10.30;48.30
71237;DHT22;58984;51.960;5.582;2023-02-28T06:31:12;10.20;47.60
71237;DHT22;58984;51.960;5.582;2023-02-28T06:33:39;10.20;47.60
71237;DHT22;58984;51.960;5.582;2023-02-28T06:36:06;10.30;47.70
71237;DHT22;58984;51.960;5.582;2023-02-28T06:38:32;10.20;47.60
71237;DHT22;58984;51.960;5.582;2023-02-28T06:40:59;10.30;47.70
71237;DHT22;58984;51.960;5.582;2023-02-28T06:43:28;10.30;47.70
71237;DHT22;58984;51.960;5.582;2023-02-28T06:45:55;10.20;47.60
71237;DHT22;58984;51.960;5.582;2023-02-28T06:48:21;10.20;47.60
71237;DHT22;58984;51.960;5.582;2023-02-28T06:50:47;10.20;47.60
71237;DHT22;58984;51.960;5.582;2023-02-28T06:53:13;10.20;47.70
71237;DHT22;58984;51.960;5.582;2023-02-28T06:55:39;10.20;47.60
71237;DHT22;58984;51.960;5.582;2023-02-28T06:58:05;10.30;47.80
71237;DHT22;58984;51.960;5.582;2023-02-28T07:00:41;10.20;47.70
71237;DHT22;58984;51.960;5.582;2023-02-28T07:03:06;10.20;47.60
71237;DHT22;58984;51.960;5.582;2023-02-28T07:05:34;10.30;47.70
71237;DHT22;58984;51.960;5.582;2023-02-28T07:08:00;10.20;47.80
71237;DHT22;58984;51.960;5.582;2023-02-28T07:10:26;10.20;47.80
71237;DHT22;58984;51.960;5.582;2023-02-28T07:12:52;10.20;47.80
71237;DHT22;58984;51.960;5.582;2023-02-28T07:15:17;10.20;47.80
71237;DHT22;58984;51.960;5.582;2023-02-28T07:17:43;10.20;47.80
71237;DHT22;58984;51.960;5.582;2023-02-28T07:20:09;10.20;47.90
71237;DHT22;58984;51.960;5.582;2023-02-28T07:22:35;10.20;47.80
71237;DHT22;58984;51.960;5.582;2023-02-28T07:25:00;10.20;48.00
71237;DHT22;58984;51.960;5.582;2023-02-28T07:27:26;10.20;47.90
71237;DHT22;58984;51.960;5.582;2023-02-28T07:29:52;10.20;47.90
71237;DHT22;58984;51.960;5.582;2023-02-28T07:32:18;10.20;48.00
71237;DHT22;58984;51.960;5.582;2023-02-28T07:34:44;10.20;47.90
71237;DHT22;58984;51.960;5.582;2023-02-28T07:37:10;10.20;47.90
71237;DHT22;58984;51.960;5.582;2023-02-28T07:39:36;10.20;47.90
71237;DHT22;58984;51.960;5.582;2023-02-28T07:42:05;10.20;48.00
71237;DHT22;58984;51.960;5.582;2023-02-28T07:44:31;10.30;48.00
71237;DHT22;58984;51.960;5.582;2023-02-28T07:46:57;10.20;48.00
71237;DHT22;58984;51.960;5.582;2023-02-28T07:49:23;10.20;48.00
71237;DHT22;58984;51.960;5.582;2023-02-28T07:51:49;10.20;48.00
71237;DHT22;58984;51.960;5.582;2023-02-28T07:54:14;10.20;48.00
71237;DHT22;58984;51.960;5.582;2023-02-28T07:56:40;10.20;48.10
71237;DHT22;58984;51.960;5.582;2023-02-28T07:59:05;10.20;48.10
71237;DHT22;58984;51.960;5.582;2023-02-28T08:01:31;10.30;48.20
71237;DHT22;58984;51.960;5.582;2023-02-28T08:03:56;10.30;48.20
71237;DHT22;58984;51.960;5.582;2023-02-28T08:06:24;10.30;48.80
71237;DHT22;58984;51.960;5.582;2023-02-28T08:08:50;10.30;48.20
71237;DHT22;58984;51.960;5.582;2023-02-28T08:11:17;10.30;47.70
71237;DHT22;58984;51.960;5.582;2023-02-28T08:13:43;10.30;47.40
71237;DHT22;58984;51.960;5.582;2023-02-28T08:16:10;10.20;46.40
71237;DHT22;58984;51.960;5.582;2023-02-28T08:18:36;10.20;45.60
71237;DHT22;58984;51.960;5.582;2023-02-28T08:21:09;10.30;45.40
71237;DHT22;58984;51.960;5.582;2023-02-28T08:23:35;10.20;45.20
71237;DHT22;58984;51.960;5.582;2023-02-28T08:26:01;10.20;44.80
71237;DHT22;58984;51.960;5.582;2023-02-28T08:28:27;10.20;44.80
71237;DHT22;58984;51.960;5.582;2023-02-28T08:30:53;10.20;44.40
71237;DHT22;58984;51.960;5.582;2023-02-28T08:33:19;10.20;43.70
71237;DHT22;58984;51.960;5.582;2023-02-28T08:35:44;10.20;43.00
71237;DHT22;58984;51.960;5.582;2023-02-28T08:38:10;10.20;42.40
71237;DHT22;58984;51.960;5.582;2023-02-28T08:40:35;10.20;42.70
71237;DHT22;58984;51.960;5.582;2023-02-28T08:43:01;10.20;41.70
71237;DHT22;58984;51.960;5.582;2023-02-28T08:45:27;10.20;41.50
71237;DHT22;58984;51.960;5.582;2023-02-28T08:47:54;10.20;41.20
71237;DHT22;58984;51.960;5.582;2023-02-28T08:50:20;10.20;40.50
71237;DHT22;58984;51.960;5.582;2023-02-28T08:52:46;10.20;40.50
71237;DHT22;58984;51.960;5.582;2023-02-28T08:55:11;10.30;40.50
71237;DHT22;58984;51.960;5.582;2023-02-28T08:57:37;10.20;40.00
71237;DHT22;58984;51.960;5.582;2023-02-28T09:00:03;10.20;39.50
71237;DHT22;58984;51.960;5.582;2023-02-28T09:02:30;10.20;39.60
71237;DHT22;58984;51.960;5.582;2023-02-28T09:04:57;10.30;40.10
71237;DHT22;58984;51.960;5.582;2023-02-28T09:07:23;10.20;39.80
71237;DHT22;58984;51.960;5.582;2023-02-28T09:09:49;10.30;40.40
71237;DHT22;58984;51.960;5.582;2023-02-28T09:12:25;10.30;40.40
71237;DHT22;58984;51.960;5.582;2023-02-28T09:14:51;10.30;40.60
71237;DHT22;58984;51.960;5.582;2023-02-28T09:17:17;10.40;41.30
71237;DHT22;58984;51.960;5.582;2023-02-28T09:19:43;10.50;41.50
71237;DHT22;58984;51.960;5.582;2023-02-28T09:22:10;10.50;41.90
71237;DHT22;58984;51.960;5.582;2023-02-28T09:24:38;10.60;42.00
71237;DHT22;58984;51.960;5.582;2023-02-28T09:27:04;10.70;42.20
71237;DHT22;58984;51.960;5.582;2023-02-28T09:29:31;10.80;42.30
71237;DHT22;58984;51.960;5.582;2023-02-28T09:31:57;10.80;43.00
71237;DHT22;58984;51.960;5.582;2023-02-28T09:34:27;10.90;42.70
71237;DHT22;58984;51.960;5.582;2023-02-28T09:36:53;11.00;43.00
71237;DHT22;58984;51.960;5.582;2023-02-28T09:39:21;11.10;43.00
71237;DHT22;58984;51.960;5.582;2023-02-28T09:41:50;11.10;43.20
71237;DHT22;58984;51.960;5.582;2023-02-28T09:44:24;11.20;43.50
71237;DHT22;58984;51.960;5.582;2023-02-28T09:47:00;11.20;44.40
71237;DHT22;58984;51.960;5.582;2023-02-28T09:49:40;11.30;44.20
71237;DHT22;58984;51.960;5.582;2023-02-28T09:52:14;11.40;44.40
71237;DHT22;58984;51.960;5.582;2023-02-28T09:54:42;11.50;44.80
71237;DHT22;58984;51.960;5.582;2023-02-28T09:57:19;11.60;45.20
71237;DHT22;58984;51.960;5.582;2023-02-28T10:10:33;11.90;46.70
71237;DHT22;58984;51.960;5.582;2023-02-28T10:13:03;12.10;46.80
71237;DHT22;58984;51.960;5.582;2023-02-28T10:15:31;12.10;47.00
71237;DHT22;58984;51.960;5.582;2023-02-28T10:18:05;12.20;47.30
71237;DHT22;58984;51.960;5.582;2023-02-28T10:20:38;12.30;47.50
71237;DHT22;58984;51.960;5.582;2023-02-28T10:23:25;12.40;47.40
71237;DHT22;58984;51.960;5.582;2023-02-28T10:26:00;12.40;47.50
71237;DHT22;58984;51.960;5.582;2023-02-28T10:28:28;12.60;47.60
71237;DHT22;58984;51.960;5.582;2023-02-28T10:30:55;12.70;47.90
71237;DHT22;58984;51.960;5.582;2023-02-28T10:33:32;12.80;48.00
71237;DHT22;58984;51.960;5.582;2023-02-28T10:36:00;12.80;48.00
71237;DHT22;58984;51.960;5.582;2023-02-28T10:38:29;12.90;48.10
71237;DHT22;58984;51.960;5.582;2023-02-28T10:41:07;13.00;48.20
71237;DHT22;58984;51.960;5.582;2023-02-28T10:43:34;13.10;48.40
71237;DHT22;58984;51.960;5.582;2023-02-28T10:46:19;13.20;48.60
71237;DHT22;58984;51.960;5.582;2023-02-28T10:49:03;13.30;48.60
71237;DHT22;58984;51.960;5.582;2023-02-28T10:51:36;13.30;48.40
71237;DHT22;58984;51.960;5.582;2023-02-28T10:54:01;13.40;48.30
71237;DHT22;58984;51.960;5.582;2023-02-28T10:56:28;13.70;48.60
71237;DHT22;58984;51.960;5.582;2023-02-28T11:01:46;13.70;48.10
71237;DHT22;58984;51.960;5.582;2023-02-28T11:04:34;13.90;48.40
71237;DHT22;58984;51.960;5.582;2023-02-28T11:07:39;13.90;48.50
71237;DHT22;58984;51.960;5.582;2023-02-28T11:09:58;14.10;48.80
71237;DHT22;58984;51.960;5.582;2023-02-28T11:12:39;14.20;48.60
71237;DHT22;58984;51.960;5.582;2023-02-28T11:17:55;14.30;48.60
71237;DHT22;58984;51.960;5.582;2023-02-28T11:20:24;14.40;48.70
71237;DHT22;58984;51.960;5.582;2023-02-28T11:22:50;14.60;48.90
71237;DHT22;58984;51.960;5.582;2023-02-28T11:25:30;14.70;48.80
71237;DHT22;58984;51.960;5.582;2023-02-28T11:28:02;14.70;48.80
71237;DHT22;58984;51.960;5.582;2023-02-28T11:31:26;14.80;48.40
71237;DHT22;58984;51.960;5.582;2023-02-28T11:33:55;15.00;48.40
71237;DHT22;58984;51.960;5.582;2023-02-28T11:38:47;15.20;48.70
71237;DHT22;58984;51.960;5.582;2023-02-28T11:46:49;15.50;48.20
71237;DHT22;58984;51.960;5.582;2023-02-28T11:49:34;15.50;48.10
71237;DHT22;58984;51.960;5.582;2023-02-28T11:52:41;15.60;48.10
71237;DHT22;58984;51.960;5.582;2023-02-28T12:10:30;16.30;47.90
71237;DHT22;58984;51.960;5.582;2023-02-28T12:13:24;16.40;47.70
71237;DHT22;58984;51.960;5.582;2023-02-28T12:19:02;16.60;47.40
71237;DHT22;58984;51.960;5.582;2023-02-28T12:21:45;16.60;47.50
71237;DHT22;58984;51.960;5.582;2023-02-28T12:27:09;16.80;47.10
71237;DHT22;58984;51.960;5.582;2023-02-28T12:29:43;16.80;47.00
71237;DHT22;58984;51.960;5.582;2023-02-28T12:32:23;17.10;47.20
71237;DHT22;58984;51.960;5.582;2023-02-28T12:35:32;17.00;46.60
71237;DHT22;58984;51.960;5.582;2023-02-28T12:38:04;17.00;46.80
71237;DHT22;58984;51.960;5.582;2023-02-28T12:43:17;17.20;46.90
71237;DHT22;58984;51.960;5.582;2023-02-28T12:45:51;17.30;46.80
71237;DHT22;58984;51.960;5.582;2023-02-28T12:48:25;17.30;46.80
71237;DHT22;58984;51.960;5.582;2023-02-28T12:50:53;17.30;46.70
71237;DHT22;58984;51.960;5.582;2023-02-28T12:53:26;17.50;46.80
71237;DHT22;58984;51.960;5.582;2023-02-28T12:58:33;17.60;46.60
71237;DHT22;58984;51.960;5.582;2023-02-28T13:07:13;17.70;46.30
71237;DHT22;58984;51.960;5.582;2023-02-28T13:09:55;17.70;46.60
71237;DHT22;58984;51.960;5.582;2023-02-28T13:12:22;17.80;46.40
71237;DHT22;58984;51.960;5.582;2023-02-28T13:14:48;17.90;46.50
71237;DHT22;58984;51.960;5.582;2023-02-28T13:17:20;17.90;46.20
71237;DHT22;58984;51.960;5.582;2023-02-28T13:19:58;17.90;45.90
71237;DHT22;58984;51.960;5.582;2023-02-28T13:28:12;17.90;45.60
71237;DHT22;58984;51.960;5.582;2023-02-28T13:36:27;18.00;45.70
71237;DHT22;58984;51.960;5.582;2023-02-28T13:38:59;18.00;45.90
71237;DHT22;58984;51.960;5.582;2023-02-28T13:44:10;18.10;45.80
71237;DHT22;58984;51.960;5.582;2023-02-28T13:57:44;18.00;45.30
71237;DHT22;58984;51.960;5.582;2023-02-28T14:00:19;18.10;45.40
71237;DHT22;58984;51.960;5.582;2023-02-28T14:06:18;18.10;45.40
71237;DHT22;58984;51.960;5.582;2023-02-28T14:09:03;18.10;44.60
71237;DHT22;58984;51.960;5.582;2023-02-28T14:11:34;18.10;44.90
71237;DHT22;58984;51.960;5.582;2023-02-28T14:14:01;18.10;44.50
71237;DHT22;58984;51.960;5.582;2023-02-28T14:16:42;18.10;45.10
71237;DHT22;58984;51.960;5.582;2023-02-28T14:19:17;18.00;45.00
71237;DHT22;58984;51.960;5.582;2023-02-28T14:38:19;18.00;44.80
71237;DHT22;58984;51.960;5.582;2023-02-28T14:40:47;18.00;45.10
71237;DHT22;58984;51.960;5.582;2023-02-28T14:43:28;18.00;44.20
71237;DHT22;58984;51.960;5.582;2023-02-28T14:45:59;17.90;44.00
71237;DHT22;58984;51.960;5.582;2023-02-28T14:48:25;17.90;43.80
71237;DHT22;58984;51.960;5.582;2023-02-28T14:50:54;18.00;43.90
71237;DHT22;58984;51.960;5.582;2023-02-28T14:53:22;18.00;43.70
71237;DHT22;58984;51.960;5.582;2023-02-28T14:55:49;17.90;43.80
71237;DHT22;58984;51.960;5.582;2023-02-28T14:58:33;17.90;44.00
71237;DHT22;58984;51.960;5.582;2023-02-28T15:01:03;17.80;43.30
71237;DHT22;58984;51.960;5.582;2023-02-28T15:03:30;17.80;43.10
71237;DHT22;58984;51.960;5.582;2023-02-28T15:06:02;17.90;43.40
71237;DHT22;58984;51.960;5.582;2023-02-28T15:08:28;17.80;43.10
71237;DHT22;58984;51.960;5.582;2023-02-28T15:11:03;17.80;42.70
71237;DHT22;58984;51.960;5.582;2023-02-28T15:13:51;17.70;41.80
71237;DHT22;58984;51.960;5.582;2023-02-28T15:18:49;17.60;41.70
71237;DHT22;58984;51.960;5.582;2023-02-28T15:21:22;17.60;42.00
71237;DHT22;58984;51.960;5.582;2023-02-28T15:26:41;17.50;42.00
71237;DHT22;58984;51.960;5.582;2023-02-28T15:29:12;17.40;41.30
71237;DHT22;58984;51.960;5.582;2023-02-28T15:31:58;17.30;41.20
71237;DHT22;58984;51.960;5.582;2023-02-28T15:34:40;17.20;41.10
71237;DHT22;58984;51.960;5.582;2023-02-28T15:37:45;17.20;40.80
71237;DHT22;58984;51.960;5.582;2023-02-28T15:42:40;17.10;41.50
71237;DHT22;58984;51.960;5.582;2023-02-28T15:45:27;17.00;40.90
71237;DHT22;58984;51.960;5.582;2023-02-28T15:47:53;16.90;40.90
71237;DHT22;58984;51.960;5.582;2023-02-28T15:50:19;16.90;41.10
71237;DHT22;58984;51.960;5.582;2023-02-28T15:52:45;16.80;40.60
71237;DHT22;58984;51.960;5.582;2023-02-28T15:55:26;16.80;40.90
71237;DHT22;58984;51.960;5.582;2023-02-28T15:57:55;16.70;40.60
71237;DHT22;58984;51.960;5.582;2023-02-28T16:00:26;16.70;40.50
71237;DHT22;58984;51.960;5.582;2023-02-28T16:02:52;16.70;40.40
71237;DHT22;58984;51.960;5.582;2023-02-28T16:07:46;16.50;40.30
71237;DHT22;58984;51.960;5.582;2023-02-28T16:10:14;16.50;40.40
71237;DHT22;58984;51.960;5.582;2023-02-28T16:12:40;16.40;40.30
71237;DHT22;58984;51.960;5.582;2023-02-28T16:15:14;16.40;40.40
71237;DHT22;58984;51.960;5.582;2023-02-28T16:17:42;16.30;40.20
71237;DHT22;58984;51.960;5.582;2023-02-28T16:20:16;16.30;40.40
71237;DHT22;58984;51.960;5.582;2023-02-28T16:22:42;16.20;40.20
71237;DHT22;58984;51.960;5.582;2023-02-28T16:25:15;16.20;40.10
71237;DHT22;58984;51.960;5.582;2023-02-28T16:27:42;16.10;40.10
71237;DHT22;58984;51.960;5.582;2023-02-28T16:30:19;16.10;40.20
71237;DHT22;58984;51.960;5.582;2023-02-28T16:32:45;16.00;40.30
71237;DHT22;58984;51.960;5.582;2023-02-28T16:35:11;16.00;40.30
71237;DHT22;58984;51.960;5.582;2023-02-28T16:37:39;15.90;40.30
71237;DHT22;58984;51.960;5.582;2023-02-28T16:40:05;15.90;40.30
71237;DHT22;58984;51.960;5.582;2023-02-28T16:42:31;15.80;40.20
71237;DHT22;58984;51.960;5.582;2023-02-28T16:44:57;15.80;40.10
71237;DHT22;58984;51.960;5.582;2023-02-28T16:47:23;15.70;40.00
71237;DHT22;58984;51.960;5.582;2023-02-28T16:49:52;15.70;40.10
71237;DHT22;58984;51.960;5.582;2023-02-28T16:52:17;15.70;40.10
71237;DHT22;58984;51.960;5.582;2023-02-28T16:54:43;15.60;40.10
71237;DHT22;58984;51.960;5.582;2023-02-28T16:57:22;15.60;40.10
71237;DHT22;58984;51.960;5.582;2023-02-28T16:59:49;15.50;40.00
71237;DHT22;58984;51.960;5.582;2023-02-28T17:02:17;15.50;40.00
71237;DHT22;58984;51.960;5.582;2023-02-28T17:04:44;15.40;39.90
71237;DHT22;58984;51.960;5.582;2023-02-28T17:07:15;15.40;39.90
71237;DHT22;58984;51.960;5.582;2023-02-28T17:09:42;15.30;39.60
71237;DHT22;58984;51.960;5.582;2023-02-28T17:12:08;15.30;39.20
71237;DHT22;58984;51.960;5.582;2023-02-28T17:14:34;15.20;39.50
71237;DHT22;58984;51.960;5.582;2023-02-28T17:17:00;15.20;39.00
71237;DHT22;58984;51.960;5.582;2023-02-28T17:19:26;15.10;39.30
71237;DHT22;58984;51.960;5.582;2023-02-28T17:21:51;15.20;39.80
71237;DHT22;58984;51.960;5.582;2023-02-28T17:24:17;15.10;38.80
71237;DHT22;58984;51.960;5.582;2023-02-28T17:26:42;15.00;38.60
71237;DHT22;58984;51.960;5.582;2023-02-28T17:29:19;15.00;38.60
71237;DHT22;58984;51.960;5.582;2023-02-28T17:31:46;14.90;38.30
71237;DHT22;58984;51.960;5.582;2023-02-28T17:34:12;14.90;38.10
71237;DHT22;58984;51.960;5.582;2023-02-28T17:36:46;14.90;38.00
71237;DHT22;58984;51.960;5.582;2023-02-28T17:39:13;14.80;38.10
71237;DHT22;58984;51.960;5.582;2023-02-28T17:41:40;14.80;38.10
71237;DHT22;58984;51.960;5.582;2023-02-28T17:44:07;14.80;38.10
71237;DHT22;58984;51.960;5.582;2023-02-28T17:46:34;14.70;38.10
71237;DHT22;58984;51.960;5.582;2023-02-28T17:49:00;14.70;37.90
71237;DHT22;58984;51.960;5.582;2023-02-28T17:51:25;14.60;38.00
71237;DHT22;58984;51.960;5.582;2023-02-28T17:53:51;14.60;38.00
71237;DHT22;58984;51.960;5.582;2023-02-28T17:56:22;14.50;37.90
71237;DHT22;58984;51.960;5.582;2023-02-28T17:58:49;14.50;37.90
71237;DHT22;58984;51.960;5.582;2023-02-28T18:01:15;14.50;38.10
71237;DHT22;58984;51.960;5.582;2023-02-28T18:03:41;14.50;38.00
71237;DHT22;58984;51.960;5.582;2023-02-28T18:06:09;14.40;38.10
71237;DHT22;58984;51.960;5.582;2023-02-28T18:08:39;14.30;38.10